Time;durP1;ratioP1;P1;durP2;ratioP2;P2;SDS_P1;SDS_P2;PMS_P1;PMS_P2;Temp;Humidity;BMP_temperature;BMP_pressure;BME280_temperature;BME280_humidity;BME280_pressure;Samples;Min_cycle;Max_cycle;Signal;HPM_P1;HPM_P2
2021/12/11 00:00:52;;;;;;;23.17;13.80;;;;;;;-3.03;87.90;99404.16;4996078;28;20140;-80
2021/12/11 00:03:23;;;;;;;24.10;14.27;;;;;;;-3.09;87.70;99412.59;4988392;28;20116;-78
2021/12/11 00:05:56;;;;;;;24.73;14.40;;;;;;;-3.15;87.29;99415.81;4989084;28;20030;-80
2021/12/11 00:08:25;;;;;;;23.90;14.23;;;;;;;-3.18;87.01;99426.06;4995981;28;20042;-80
2021/12/11 00:10:59;;;;;;;21.37;13.07;;;;;;;-3.23;87.67;99430.19;4996123;28;20045;-80
2021/12/11 00:13:31;;;;;;;24.70;14.27;;;;;;;-3.27;87.41;99433.53;5003308;28;20038;-80
2021/12/11 00:15:58;;;;;;;24.95;14.50;;;;;;;-3.28;87.68;99430.88;4995101;28;20046;-81
2021/12/11 00:18:26;;;;;;;25.57;15.23;;;;;;;-3.27;87.26;99432.66;5002811;28;20041;-80
2021/12/11 00:21:14;;;;;;;24.80;14.30;;;;;;;-3.27;87.85;99436.09;4994187;28;20034;-81
2021/12/11 00:23:52;;;;;;;27.37;15.30;;;;;;;-3.28;88.38;99439.50;4988517;28;20035;-79
2021/12/11 00:26:54;;;;;;;24.77;14.17;;;;;;;-3.29;88.05;99444.63;4995165;28;20038;-80
2021/12/11 00:29:23;;;;;;;24.40;14.57;;;;;;;-3.32;87.60;99441.13;5008719;28;20038;-80
2021/12/11 00:31:54;;;;;;;27.33;16.17;;;;;;;-3.34;87.37;99447.06;4995221;28;20057;-80
2021/12/11 00:36:56;;;;;;;27.73;15.73;;;;;;;-3.35;87.55;99456.50;4972368;28;20074;-75
2021/12/11 00:39:23;;;;;;;23.17;14.10;;;;;;;-3.38;87.69;99460.66;4970389;28;20117;-74
2021/12/11 00:41:54;;;;;;;26.57;15.77;;;;;;;-3.38;88.45;99465.81;4974058;28;20039;-74
2021/12/11 00:44:40;;;;;;;23.07;13.77;;;;;;;-3.33;88.91;99465.19;4970403;28;20465;-74
2021/12/11 00:47:12;;;;;;;28.87;16.07;;;;;;;-3.32;88.86;99468.63;4972762;28;20039;-74
2021/12/11 00:50:06;;;;;;;27.70;16.17;;;;;;;-3.37;88.25;99470.19;4976607;28;20113;-74
2021/12/11 00:52:40;;;;;;;25.73;14.27;;;;;;;-3.40;87.89;99470.97;4972639;28;20051;-74
2021/12/11 00:55:17;;;;;;;26.97;15.23;;;;;;;-3.45;88.23;99472.50;4973435;28;20508;-74
2021/12/11 00:57:44;;;;;;;28.90;16.87;;;;;;;-3.48;87.63;99482.72;4970630;28;20042;-74
2021/12/11 01:00:15;;;;;;;26.63;16.20;;;;;;;-3.50;86.76;99486.09;4974032;28;20034;-75
2021/12/11 01:02:42;;;;;;;25.90;15.83;;;;;;;-3.54;87.64;99495.41;4972318;28;20449;-75
2021/12/11 01:05:09;;;;;;;23.77;14.60;;;;;;;-3.56;87.91;99491.94;4973186;28;20034;-75
2021/12/11 01:07:35;;;;;;;27.33;16.20;;;;;;;-3.62;88.00;99500.31;4974029;28;20073;-74
2021/12/11 01:10:12;;;;;;;26.20;13.97;;;;;;;-3.63;88.29;99495.97;4975074;28;20038;-74
2021/12/11 01:12:49;;;;;;;25.63;15.73;;;;;;;-3.64;87.98;99501.06;4972111;28;20042;-74
2021/12/11 01:15:26;;;;;;;26.67;15.17;;;;;;;-3.68;87.33;99502.69;4974230;28;20038;-74
2021/12/11 01:18:40;;;;;;;21.83;13.70;;;;;;;-3.69;87.68;99506.09;4972754;28;20034;-74
2021/12/11 01:20:54;;;;;;;;;;;;;;;-3.71;87.09;99509.44;4971572;28;20521;-75
2021/12/11 01:23:47;;;;;;;27.90;14.10;;;;;;;-3.76;87.84;99519.59;4969845;28;19921;-74
2021/12/11 01:26:17;;;;;;;;;;;;;;;-3.77;88.10;99517.84;4972925;28;20093;-75
2021/12/11 01:28:43;;;;;;;24.47;12.87;;;;;;;-3.80;87.37;99525.47;4973510;28;20391;-75
2021/12/11 01:31:11;;;;;;;26.83;14.70;;;;;;;-3.82;88.22;99521.97;4973406;28;20035;-75
2021/12/11 01:33:37;;;;;;;35.73;18.87;;;;;;;-3.81;87.59;99534.03;4973464;28;20110;-75
2021/12/11 01:36:05;;;;;;;25.03;14.73;;;;;;;-3.83;88.19;99536.53;4973014;28;20050;-75
2021/12/11 01:38:33;;;;;;;27.43;15.13;;;;;;;-3.83;87.95;99538.25;4973407;28;20089;-75
2021/12/11 01:41:05;;;;;;;32.37;18.23;;;;;;;-3.85;88.37;99547.63;4974820;28;20031;-75
2021/12/11 01:43:33;;;;;;;34.97;18.75;;;;;;;-3.85;87.87;99551.09;4973791;28;20137;-74
2021/12/11 01:46:00;;;;;;;25.63;14.90;;;;;;;-3.86;87.54;99548.47;4973564;28;20038;-74
2021/12/11 01:48:30;;;;;;;29.17;15.37;;;;;;;-3.92;87.21;99567.16;4974914;28;20131;-74
2021/12/11 01:51:07;;;;;;;28.33;16.50;;;;;;;-4.00;87.32;99561.72;4973563;28;20034;-74
2021/12/11 01:53:41;;;;;;;25.67;14.67;;;;;;;-4.04;87.54;99565.00;4970738;28;20050;-74
2021/12/11 01:56:11;;;;;;;28.07;16.37;;;;;;;-4.03;88.70;99569.34;4974125;28;20496;-74
2021/12/11 01:58:55;;;;;;;25.17;15.53;;;;;;;-4.05;87.65;99583.00;4974622;28;20057;-74
2021/12/11 02:01:28;;;;;;;29.30;16.20;;;;;;;-4.13;87.25;99580.16;4974625;28;20086;-74
2021/12/11 02:03:57;;;;;;;;;;;;;;;-4.15;87.79;99583.47;4971109;28;20378;-74
2021/12/11 02:06:36;;;;;;;31.70;16.87;;;;;;;-4.18;87.42;99576.50;4974543;28;19945;-74
2021/12/11 02:09:14;;;;;;;26.57;15.47;;;;;;;-4.19;87.76;99590.22;4974467;28;20027;-74
2021/12/11 02:11:39;;;;;;;25.97;15.20;;;;;;;-4.24;87.46;99594.34;4974279;28;20548;-74
2021/12/11 02:14:06;;;;;;;29.20;16.37;;;;;;;-4.25;87.00;99595.13;4974510;28;20058;-74
2021/12/11 02:16:42;;;;;;;26.53;15.67;;;;;;;-4.22;88.08;99597.81;4974740;28;20512;-75
2021/12/11 02:19:14;;;;;;;21.67;13.40;;;;;;;-4.26;87.06;99607.16;4974549;28;20089;-74
2021/12/11 02:22:02;;;;;;;24.75;13.98;;;;;;;-4.31;86.60;99615.53;4970988;28;20045;-74
2021/12/11 02:24:39;;;;;;;24.67;13.70;;;;;;;-4.35;86.60;99623.94;4968623;28;20055;-75
2021/12/11 02:27:17;;;;;;;24.03;14.73;;;;;;;-4.37;86.53;99626.47;4970782;28;20433;-74
2021/12/11 02:29:55;;;;;;;26.60;15.67;;;;;;;-4.40;87.24;99626.34;4971845;28;20042;-74
2021/12/11 02:32:31;;;;;;;26.43;15.33;;;;;;;-4.39;86.45;99628.09;4974329;28;20039;-74
2021/12/11 02:35:30;;;;;;;26.13;15.53;;;;;;;-4.43;87.39;99644.25;4964137;28;20042;-74
2021/12/11 02:38:07;;;;;;;25.73;15.07;;;;;;;-4.46;86.46;99642.41;4970664;28;20050;-74
2021/12/11 02:40:47;;;;;;;28.43;16.03;;;;;;;-4.46;87.66;99641.56;4971931;28;20041;-74
2021/12/11 02:43:21;;;;;;;26.33;14.17;;;;;;;-4.43;87.77;99647.72;4974605;28;20046;-73
2021/12/11 02:45:51;;;;;;;25.73;13.87;;;;;;;-4.45;87.46;99651.06;4974128;28;20069;-74
2021/12/11 02:48:22;;;;;;;32.03;17.50;;;;;;;-4.45;87.05;99654.50;4972556;28;20042;-74
2021/12/11 02:51:05;;;;;;;25.05;14.63;;;;;;;-4.44;86.96;99661.41;4968999;28;20042;-74
2021/12/11 02:53:35;;;;;;;;;;;;;;;-4.47;87.63;99655.25;4976413;28;20027;-74
2021/12/11 02:56:21;;;;;;;28.23;16.17;;;;;;;-4.48;87.05;99658.63;4972335;28;20552;-74
2021/12/11 02:58:52;;;;;;;44.20;17.30;;;;;;;-4.57;86.79;99659.16;4969295;28;20047;-75
2021/12/11 03:01:28;;;;;;;27.27;15.27;;;;;;;-4.64;86.71;99667.44;4972163;28;20470;-74
2021/12/11 03:04:09;;;;;;;33.33;14.73;;;;;;;-4.63;86.44;99675.25;4972121;28;20031;-74
2021/12/11 03:06:40;;;;;;;42.27;17.33;;;;;;;-4.68;86.60;99675.88;4968388;28;20049;-74
2021/12/11 03:09:08;;;;;;;31.23;16.70;;;;;;;-4.72;86.91;99681.69;4969616;28;20085;-74
2021/12/11 03:11:34;;;;;;;45.10;16.83;;;;;;;-4.72;86.69;99676.56;4972879;28;20070;-75
2021/12/11 03:14:03;;;;;;;93.03;21.60;;;;;;;-4.79;86.48;99682.25;4958720;28;20077;-75
2021/12/11 03:16:32;;;;;;;26.90;15.27;;;;;;;-4.76;87.64;99690.13;4981031;28;20054;-74
2021/12/11 03:18:59;;;;;;;170.50;25.37;;;;;;;-4.86;86.35;99701.72;4971159;28;20042;-74
2021/12/11 03:21:25;;;;;;;24.87;13.77;;;;;;;-4.90;86.56;99700.75;4972331;28;20042;-74
2021/12/11 03:23:52;;;;;;;23.63;13.63;;;;;;;-5.04;86.18;99706.97;4979433;28;20110;-75
2021/12/11 03:26:17;;;;;;;24.20;14.63;;;;;;;-5.15;85.64;99703.94;4978843;28;20108;-75
2021/12/11 03:28:43;;;;;;;26.17;14.23;;;;;;;-5.17;84.98;99720.13;4979023;28;20046;-75
2021/12/11 03:31:09;;;;;;;23.07;12.50;;;;;;;-5.20;85.73;99714.84;4978752;28;20042;-74
2021/12/11 03:33:44;;;;;;;20.50;11.37;;;;;;;-5.20;85.72;99725.16;4978344;28;20039;-75
2021/12/11 03:36:14;;;;;;;22.17;12.30;;;;;;;-5.32;84.88;99726.38;4978093;28;20483;-75
2021/12/11 03:38:48;;;;;;;21.83;12.40;;;;;;;-5.44;84.49;99725.81;4977842;28;20037;-74
2021/12/11 03:41:13;;;;;;;22.63;12.03;;;;;;;-5.44;85.81;99735.22;4975094;28;20035;-74
2021/12/11 03:43:39;;;;;;;19.73;10.07;;;;;;;-5.42;85.41;99739.63;4976866;28;20038;-74
2021/12/11 03:46:07;;;;;;;16.83;9.50;;;;;;;-5.41;85.71;99751.66;4977054;28;20090;-74
2021/12/11 03:48:40;;;;;;;17.50;10.20;;;;;;;-5.39;84.92;99746.59;4977062;28;20093;-74
2021/12/11 03:51:08;;;;;;;18.03;10.90;;;;;;;-5.46;85.05;99748.00;4974852;28;20046;-74
2021/12/11 03:53:34;;;;;;;18.40;10.57;;;;;;;-5.47;85.29;99756.56;4976994;28;20045;-74
2021/12/11 03:56:03;;;;;;;14.70;9.60;;;;;;;-5.45;85.65;99759.16;4977019;28;20034;-74
2021/12/11 03:58:29;;;;;;;17.57;10.07;;;;;;;-5.49;85.47;99753.03;4972355;28;20038;-74
2021/12/11 04:01:03;;;;;;;17.17;8.57;;;;;;;-5.49;85.09;99757.28;4975885;28;20089;-74
2021/12/11 04:03:32;;;;;;;16.93;9.37;;;;;;;-5.59;84.93;99766.25;4972305;28;20049;-74
2021/12/11 04:06:01;;;;;;;13.97;8.20;;;;;;;-5.61;84.24;99773.03;4974923;28;20074;-74
2021/12/11 04:08:30;;;;;;;15.07;8.87;;;;;;;-5.64;84.95;99783.16;4975979;28;20097;-75
2021/12/11 04:10:56;;;;;;;18.10;10.33;;;;;;;-5.72;84.60;99780.25;4958615;28;20061;-74
2021/12/11 04:13:22;;;;;;;15.50;9.27;;;;;;;-5.80;84.19;99777.31;4975655;28;20027;-74
2021/12/11 04:15:50;;;;;;;17.93;10.50;;;;;;;-5.90;84.10;99787.97;4974416;28;20449;-74
2021/12/11 04:18:17;;;;;;;17.20;9.60;;;;;;;-5.99;83.79;99795.28;4973639;28;20067;-75
2021/12/11 04:20:45;;;;;;;19.40;11.13;;;;;;;-6.08;84.50;99805.97;4976178;28;20042;-74
2021/12/11 04:23:12;;;;;;;20.73;12.40;;;;;;;-6.14;83.75;99810.81;4971597;28;20042;-74
2021/12/11 04:25:41;;;;;;;18.33;10.83;;;;;;;-6.07;83.56;99822.28;4971642;28;20034;-75
2021/12/11 04:28:07;;;;;;;25.80;13.37;;;;;;;-6.14;83.41;99830.50;4973958;28;20038;-75
2021/12/11 04:30:33;;;;;;;24.90;13.87;;;;;;;-6.15;84.10;99834.75;4974997;28;20042;-74
2021/12/11 04:32:59;;;;;;;28.57;14.27;;;;;;;-6.10;83.54;99833.31;4975481;28;20038;-74
2021/12/11 04:35:28;;;;;;;32.27;15.67;;;;;;;-5.99;84.96;99834.69;4972616;28;20038;-74
2021/12/11 04:37:58;;;;;;;50.97;17.47;;;;;;;-5.85;84.49;99843.03;4975207;28;20035;-75
2021/12/11 04:40:30;;;;;;;59.00;17.83;;;;;;;-5.82;84.81;99845.75;4975106;28;20034;-74
2021/12/11 04:43:03;;;;;;;91.83;20.70;;;;;;;-5.83;84.90;99849.13;4970893;28;20133;-74
2021/12/11 04:45:34;;;;;;;177.53;24.93;;;;;;;-5.94;84.79;99858.06;4971742;28;20027;-74
2021/12/11 04:48:21;;;;;;;38.75;16.08;;;;;;;-5.92;86.36;99858.97;4975523;28;20046;-74
2021/12/11 04:51:04;;;;;;;57.57;15.40;;;;;;;-5.83;85.61;99869.69;4973912;28;20050;-74
2021/12/11 04:53:47;;;;;;;34.10;15.68;;;;;;;-5.77;86.01;99864.84;4971584;28;20391;-74
2021/12/11 04:59:30;;;;;;;56.93;14.73;;;;;;;-5.80;85.60;99874.97;4972216;28;20497;-73
2021/12/11 05:02:14;;;;;;;25.97;13.53;;;;;;;-5.75;86.38;99873.50;4954336;28;20125;-73
2021/12/11 05:05:14;;;;;;;77.37;14.97;;;;;;;-5.78;85.77;99878.50;4969315;28;20039;-74
2021/12/11 05:07:38;;;;;;;58.03;13.80;;;;;;;-5.74;85.74;99876.94;4972912;28;20054;-74
2021/12/11 05:10:26;;;;;;;49.07;14.50;;;;;;;-5.67;85.62;99880.72;4974157;28;20429;-75
2021/12/11 05:12:55;;;;;;;32.03;12.27;;;;;;;-5.77;85.76;99885.41;4972583;28;20616;-74
2021/12/11 05:15:25;;;;;;;39.40;13.83;;;;;;;-5.76;86.56;99888.88;4973301;28;20470;-75
2021/12/11 05:17:51;;;;;;;71.13;17.37;;;;;;;-5.68;87.12;99914.94;4973629;28;20039;-75
2021/12/11 05:20:21;;;;;;;43.77;13.73;;;;;;;-5.62;86.55;99904.97;4973398;28;20543;-75
2021/12/11 05:22:46;;;;;;;48.10;14.53;;;;;;;-5.59;86.71;99911.13;4973744;28;20512;-74
2021/12/11 05:25:13;;;;;;;40.77;12.80;;;;;;;-5.60;86.24;99914.50;4973793;28;20031;-74
2021/12/11 05:27:40;;;;;;;30.97;11.83;;;;;;;-5.68;85.55;99917.53;4974227;28;20129;-74
2021/12/11 05:30:10;;;;;;;42.97;12.90;;;;;;;-5.72;86.16;99926.75;4974130;28;20031;-75
2021/12/11 05:32:35;;;;;;;46.93;15.40;;;;;;;-5.81;85.25;99929.75;4973743;28;20404;-74
2021/12/11 05:35:01;;;;;;;38.07;14.43;;;;;;;-5.86;85.90;99938.94;4973355;28;20034;-74
2021/12/11 05:37:26;;;;;;;26.23;13.73;;;;;;;-5.86;85.53;99936.38;4972720;28;20508;-75
2021/12/11 05:39:53;;;;;;;28.33;14.07;;;;;;;-5.85;85.70;99945.81;4974074;28;20390;-73
2021/12/11 05:42:18;;;;;;;28.73;14.53;;;;;;;-5.83;86.44;99944.22;4974639;28;20507;-75
2021/12/11 05:44:44;;;;;;;36.43;15.70;;;;;;;-5.76;86.71;99954.00;4972898;28;20102;-75
2021/12/11 05:47:10;;;;;;;36.70;16.17;;;;;;;-5.66;86.41;99957.88;4973911;28;20066;-75
2021/12/11 05:49:36;;;;;;;51.07;16.77;;;;;;;-5.55;86.59;99955.88;4972748;28;20026;-75
2021/12/11 05:52:06;;;;;;;47.27;16.40;;;;;;;-5.45;85.87;99965.75;4973024;28;20038;-74
2021/12/11 05:54:33;;;;;;;106.77;19.43;;;;;;;-5.56;85.57;99966.94;4973010;28;20524;-75
2021/12/11 05:57:03;;;;;;;68.20;19.10;;;;;;;-5.58;84.76;99979.75;4973731;28;20078;-75
2021/12/11 05:59:29;;;;;;;101.67;19.87;;;;;;;-5.69;85.24;99974.88;4973584;28;20105;-75
2021/12/11 06:01:58;;;;;;;68.63;18.57;;;;;;;-5.75;85.07;99975.44;4972030;28;20034;-74
2021/12/11 06:04:31;;;;;;;82.97;19.77;;;;;;;-5.75;84.86;99986.59;4970988;28;20551;-74
2021/12/11 06:06:58;;;;;;;50.90;19.10;;;;;;;-5.84;85.25;99983.59;4968832;28;20030;-75
2021/12/11 06:09:24;;;;;;;35.73;15.83;;;;;;;-5.90;86.23;99990.97;4963767;28;20402;-74
2021/12/11 06:11:52;;;;;;;53.37;21.17;;;;;;;-5.94;85.29;99993.38;4972253;28;20042;-74
2021/12/11 06:14:19;;;;;;;41.60;17.90;;;;;;;-6.01;86.38;100007.56;4972347;28;20042;-75
2021/12/11 06:16:48;;;;;;;40.87;17.63;;;;;;;-6.08;85.37;100010.63;4972131;28;20504;-74
2021/12/11 06:19:14;;;;;;;36.27;17.50;;;;;;;-6.12;86.01;100011.28;4956107;28;20497;-74
2021/12/11 06:21:39;;;;;;;37.40;17.77;;;;;;;-6.12;85.54;100016.41;4956064;28;20042;-75
2021/12/11 06:24:06;;;;;;;39.07;17.63;;;;;;;-6.04;85.63;100022.84;4978798;28;20173;-74
2021/12/11 06:26:32;;;;;;;63.73;21.40;;;;;;;-5.98;86.28;100013.72;4972806;28;20121;-75
2021/12/11 06:28:58;;;;;;;52.27;18.33;;;;;;;-5.85;86.44;100028.06;4972944;28;20042;-74
2021/12/11 06:31:23;;;;;;;62.30;21.70;;;;;;;-5.84;85.24;100037.56;4973193;28;20046;-74
2021/12/11 06:33:51;;;;;;;82.67;23.97;;;;;;;-5.92;86.02;100030.22;4973409;28;20066;-74
2021/12/11 06:36:20;;;;;;;45.87;21.10;;;;;;;-5.95;86.64;100038.69;5003256;22;20041;-79
2021/12/11 06:38:48;;;;;;;64.10;20.77;;;;;;;-5.85;86.92;100046.06;5021617;28;20067;-78
2021/12/11 06:41:18;;;;;;;57.97;21.80;;;;;;;-5.74;86.10;100047.50;5023036;28;20037;-78
2021/12/11 06:43:43;;;;;;;74.00;24.00;;;;;;;-5.75;86.22;100061.13;5025221;28;20036;-78
2021/12/11 06:46:09;;;;;;;61.63;22.90;;;;;;;-5.80;86.16;100060.03;5023022;28;20547;-79
2021/12/11 06:48:35;;;;;;;56.83;22.57;;;;;;;-5.75;86.49;100076.56;5021310;28;20036;-78
2021/12/11 06:51:03;;;;;;;56.37;22.97;;;;;;;-5.69;86.59;100075.13;5020782;28;20033;-79
2021/12/11 06:53:36;;;;;;;57.30;23.17;;;;;;;-5.59;85.35;100079.94;5023088;28;20100;-79
2021/12/11 06:56:05;;;;;;;57.27;22.63;;;;;;;-5.52;86.04;100085.47;5022657;28;20034;-79
2021/12/11 06:58:31;;;;;;;60.93;23.17;;;;;;;-5.47;86.63;100101.13;5028862;28;20090;-79
2021/12/11 07:00:59;;;;;;;94.90;24.67;;;;;;;-5.31;86.67;100105.34;5030412;28;20030;-79
2021/12/11 07:03:24;;;;;;;93.27;24.27;;;;;;;-5.19;85.92;100107.63;5026200;28;20392;-78
2021/12/11 07:05:50;;;;;;;62.47;22.07;;;;;;;-5.22;85.22;100117.78;5026538;28;20030;-78
2021/12/11 07:08:17;;;;;;;56.90;23.20;;;;;;;-5.24;85.98;100115.16;5023900;28;20053;-78
2021/12/11 07:10:44;;;;;;;101.67;26.17;;;;;;;-5.23;86.13;100121.19;5026646;28;20091;-78
2021/12/11 07:13:10;;;;;;;74.27;24.57;;;;;;;-5.03;86.77;100127.28;5023816;28;20034;-78
2021/12/11 07:15:36;;;;;;;118.10;30.13;;;;;;;-4.96;86.25;100135.41;5024129;28;20034;-78
2021/12/11 07:18:02;;;;;;;66.43;24.90;;;;;;;-4.93;85.81;100122.69;5027502;28;20094;-78
2021/12/11 07:20:28;;;;;;;143.43;26.00;;;;;;;-4.84;85.60;100127.41;5024443;28;20458;-78
2021/12/11 07:22:54;;;;;;;117.83;23.10;;;;;;;-4.80;85.64;100133.59;5026914;28;20030;-78
2021/12/11 07:25:26;;;;;;;180.93;26.17;;;;;;;-4.81;85.37;100132.69;5021586;28;20526;-78
2021/12/11 07:27:52;;;;;;;87.82;23.95;;;;;;;-4.83;85.26;100141.16;5029871;28;20042;-78
2021/12/11 07:30:18;;;;;;;127.20;29.67;;;;;;;-4.79;85.51;100143.97;5026784;28;20242;-79
2021/12/11 07:32:43;;;;;;;72.77;22.20;;;;;;;-4.79;85.43;100155.94;5023461;28;20037;-79
2021/12/11 07:35:09;;;;;;;71.60;25.47;;;;;;;-4.74;85.47;100162.19;5032161;28;20048;-79
2021/12/11 07:37:35;;;;;;;50.73;21.97;;;;;;;-4.70;84.85;100171.84;5033239;28;20049;-78
2021/12/11 07:40:01;;;;;;;60.27;23.10;;;;;;;-4.71;84.79;100180.38;5032689;28;20037;-79
2021/12/11 07:42:26;;;;;;;49.30;21.27;;;;;;;-4.72;84.92;100183.75;5005613;28;20419;-79
2021/12/11 07:44:51;;;;;;;47.80;20.80;;;;;;;-4.78;84.54;100184.34;5027743;28;20094;-78
2021/12/11 07:47:17;;;;;;;44.97;20.03;;;;;;;-4.81;84.40;100189.34;5019143;28;20541;-78
2021/12/11 07:49:42;;;;;;;56.60;18.87;;;;;;;-4.86;84.54;100201.97;5023631;28;20120;-78
2021/12/11 07:52:08;;;;;;;36.93;17.33;;;;;;;-4.91;84.40;100200.84;5023321;28;20251;-78
2021/12/11 07:54:33;;;;;;;71.70;19.67;;;;;;;-4.87;84.15;100210.53;5025207;28;20048;-78
2021/12/11 07:56:59;;;;;;;62.17;19.97;;;;;;;-4.91;84.28;100213.72;5025564;28;20064;-77
2021/12/11 07:59:24;;;;;;;65.97;20.80;;;;;;;-4.98;84.81;100226.22;5025824;28;20039;-78
2021/12/11 08:01:52;;;;;;;36.63;17.93;;;;;;;-4.96;85.07;100228.06;5026428;28;20403;-78
2021/12/11 08:04:18;;;;;;;40.80;19.27;;;;;;;-4.85;85.36;100233.75;5029278;28;20416;-78
2021/12/11 08:06:43;;;;;;;31.97;17.43;;;;;;;-4.82;85.17;100243.31;5025213;28;20044;-78
2021/12/11 08:09:12;;;;;;;29.23;15.57;;;;;;;-4.82;84.43;100249.38;5019805;28;20095;-78
2021/12/11 08:11:39;;;;;;;53.53;18.60;;;;;;;-4.80;85.46;100241.72;5025429;28;20089;-78
2021/12/11 08:14:05;;;;;;;42.90;16.90;;;;;;;-4.69;85.15;100246.59;5028166;28;20044;-79
2021/12/11 08:16:43;;;;;;;36.13;16.07;;;;;;;-4.53;85.06;100253.41;5025505;28;20096;-79
2021/12/11 08:19:09;;;;;;;44.50;16.63;;;;;;;-4.47;85.44;100255.41;5028505;28;20402;-79
2021/12/11 08:21:34;;;;;;;35.73;14.33;;;;;;;-4.35;85.22;100263.69;5031402;28;20047;-78
2021/12/11 08:24:04;;;;;;;76.77;19.10;;;;;;;-4.25;85.64;100265.91;5029672;28;20036;-78
2021/12/11 08:26:30;;;;;;;93.70;19.47;;;;;;;-4.15;85.60;100264.69;5022869;28;20116;-79
2021/12/11 08:28:55;;;;;;;65.67;19.97;;;;;;;-3.95;85.79;100272.50;5029541;28;20129;-78
2021/12/11 08:31:22;;;;;;;59.63;17.43;;;;;;;-3.78;85.47;100274.16;5029038;28;20055;-78
2021/12/11 08:33:49;;;;;;;41.73;18.20;;;;;;;-3.56;85.86;100276.06;5025796;28;20045;-78
2021/12/11 08:36:15;;;;;;;41.73;16.87;;;;;;;-3.38;85.38;100279.50;5026992;28;20088;-78
2021/12/11 08:38:42;;;;;;;56.33;19.10;;;;;;;-3.23;85.10;100281.84;5029923;28;20472;-78
2021/12/11 08:41:09;;;;;;;59.13;18.87;;;;;;;-3.04;85.11;100286.13;5027660;28;20537;-78
2021/12/11 08:43:35;;;;;;;65.50;17.43;;;;;;;-2.87;84.08;100285.19;5025424;28;20451;-78
2021/12/11 08:46:11;;;;;;;41.70;18.60;;;;;;;-2.82;83.79;100287.97;5022668;28;20030;-78
2021/12/11 08:48:40;;;;;;;39.57;17.87;;;;;;;-2.69;84.10;100281.66;5041403;28;20042;-78
2021/12/11 08:51:17;;;;;;;60.20;21.77;;;;;;;-2.75;84.06;100297.78;5028399;28;20030;-78
2021/12/11 08:53:43;;;;;;;69.53;20.67;;;;;;;-2.79;85.09;100301.03;5024391;28;20091;-79
2021/12/11 08:56:10;;;;;;;43.43;19.57;;;;;;;-2.68;85.21;100310.13;5025000;28;20403;-78
2021/12/11 08:58:36;;;;;;;54.87;21.80;;;;;;;-2.60;85.57;100312.16;5025191;28;20681;-78
2021/12/11 09:01:34;;;;;;;102.70;27.47;;;;;;;-2.53;84.95;100314.19;5024874;28;20037;-78
2021/12/11 09:04:12;;;;;;;60.37;20.67;;;;;;;-2.54;84.88;100326.25;5024334;28;20095;-79
2021/12/11 09:07:00;;;;;;;44.47;20.47;;;;;;;-2.37;85.08;100324.34;5024884;28;20136;-81
2021/12/11 09:09:39;;;;;;;91.23;21.20;;;;;;;-2.49;84.33;100331.56;5025369;28;20049;-78
2021/12/11 09:12:17;;;;;;;72.47;22.17;;;;;;;-2.57;85.03;100335.53;5024241;28;20041;-80
2021/12/11 09:14:51;;;;;;;44.50;18.33;;;;;;;-2.60;84.85;100344.03;5023899;28;20125;-78
2021/12/11 09:17:27;;;;;;;119.00;22.27;;;;;;;-2.52;84.54;100353.00;5023894;28;20480;-78
2021/12/11 09:20:09;;;;;;;72.70;21.40;;;;;;;-2.55;85.07;100358.03;5020143;28;20034;-79
2021/12/11 09:22:45;;;;;;;93.87;21.63;;;;;;;-2.55;84.49;100364.91;5025416;28;20107;-79
2021/12/11 09:25:29;;;;;;;115.30;21.93;;;;;;;-2.68;85.46;100373.81;5023526;28;20037;-78
2021/12/11 09:28:02;;;;;;;74.60;19.40;;;;;;;-2.73;85.38;100373.59;5021552;28;20130;-79
2021/12/11 09:30:45;;;;;;;68.70;20.20;;;;;;;-2.81;86.21;100387.88;5027178;28;20034;-79
2021/12/11 09:33:18;;;;;;;98.45;20.55;;;;;;;-2.80;86.42;100383.59;5030813;28;20484;-79
2021/12/11 09:36:00;;;;;;;71.57;17.80;;;;;;;-2.76;86.14;100382.94;5006933;28;20044;-79
2021/12/11 09:38:30;;;;;;;100.28;19.27;;;;;;;-2.72;86.38;100387.44;5027990;28;20045;-78
2021/12/11 09:40:55;;;;;;;56.77;20.40;;;;;;;-2.67;87.20;100381.66;5009033;28;20049;-79
2021/12/11 09:43:36;;;;;;;76.00;21.77;;;;;;;-2.55;86.87;100391.63;5015928;28;20045;-79
2021/12/11 09:46:05;;;;;;;85.80;20.03;;;;;;;-2.69;87.00;100398.78;5021362;28;20026;-78
2021/12/11 09:48:30;;;;;;;46.47;20.37;;;;;;;-2.59;86.76;100396.59;5021765;28;20528;-79
2021/12/11 09:51:02;;;;;;;108.23;25.57;;;;;;;-2.49;86.90;100394.50;5017027;28;20081;-79
2021/12/11 09:53:35;;;;;;;61.10;20.90;;;;;;;-2.35;86.89;100400.28;5020452;28;20046;-78
2021/12/11 09:56:04;;;;;;;36.73;19.57;;;;;;;-2.22;86.64;100399.97;5020351;28;20361;-78
2021/12/11 09:58:33;;;;;;;93.00;24.27;;;;;;;-2.18;86.75;100408.75;5022807;28;20030;-77
2021/12/11 10:01:19;;;;;;;100.07;23.97;;;;;;;-2.22;87.61;100405.16;5022317;28;20060;-79
2021/12/11 10:03:56;;;;;;;76.83;21.90;;;;;;;-2.22;87.84;100407.75;5022982;28;20030;-79
2021/12/11 10:06:42;;;;;;;59.93;22.00;;;;;;;-2.03;87.67;100422.31;5022030;28;20450;-79
2021/12/11 10:09:18;;;;;;;62.60;21.93;;;;;;;-1.92;86.89;100420.19;5023843;28;20522;-79
2021/12/11 10:11:50;;;;;;;78.03;24.50;;;;;;;-1.92;86.69;100425.38;5019956;28;20492;-79
2021/12/11 10:14:19;;;;;;;95.97;29.02;;;;;;;-1.75;87.38;100422.63;5023416;28;20112;-79
2021/12/11 10:16:49;;;;;;;45.80;24.13;;;;;;;-1.68;86.83;100420.31;5030468;28;20049;-77
2021/12/11 10:19:17;;;;;;;73.90;27.27;;;;;;;-1.58;86.94;100421.59;5022542;28;20033;-78
2021/12/11 10:21:53;;;;;;;55.23;25.17;;;;;;;-1.42;86.89;100423.97;5031476;28;20526;-78
2021/12/11 10:24:23;;;;;;;108.00;28.43;;;;;;;-1.33;86.64;100423.47;5019926;28;20460;-78
2021/12/11 10:26:52;;;;;;;57.93;28.27;;;;;;;-1.19;85.69;100431.78;5019889;28;20100;-78
2021/12/11 10:29:19;;;;;;;135.13;32.70;;;;;;;-1.33;85.88;100429.53;5020024;28;20061;-78
2021/12/11 10:31:55;;;;;;;78.50;27.83;;;;;;;-1.27;85.48;100438.38;5026134;28;20068;-79
2021/12/11 10:34:24;;;;;;;124.20;33.70;;;;;;;-1.32;86.07;100448.53;5029770;28;20048;-78
2021/12/11 10:36:58;;;;;;;81.67;31.10;;;;;;;-1.18;86.25;100451.66;5024408;28;20764;-77
2021/12/11 10:39:25;;;;;;;62.87;30.87;;;;;;;-1.22;85.28;100452.38;5030810;28;20038;-78
2021/12/11 10:41:51;;;;;;;68.03;31.37;;;;;;;-1.22;85.87;100465.34;5026746;28;20029;-78
2021/12/11 10:44:22;;;;;;;75.10;31.50;;;;;;;-1.18;86.34;100459.44;5023253;28;20077;-78
2021/12/11 10:46:58;;;;;;;64.43;29.03;;;;;;;-1.08;86.15;100464.16;5025076;28;20033;-78
2021/12/11 10:49:25;;;;;;;60.17;32.03;;;;;;;-1.10;86.20;100468.44;5024647;28;20288;-78
2021/12/11 10:52:00;;;;;;;70.50;34.63;;;;;;;-0.88;86.47;100475.31;5024872;28;20515;-78
2021/12/11 10:54:27;;;;;;;85.33;35.57;;;;;;;-0.73;86.15;100482.81;5020562;28;20026;-78
2021/12/11 10:56:53;;;;;;;63.30;32.20;;;;;;;-0.58;85.41;100482.50;5022947;28;20044;-78
2021/12/11 10:59:24;;;;;;;75.37;31.93;;;;;;;-0.63;84.82;100490.09;5026831;28;20025;-78
2021/12/11 11:01:58;;;;;;;64.03;30.43;;;;;;;-0.71;84.64;100499.28;5026140;28;20036;-78
2021/12/11 11:04:33;;;;;;;65.03;29.87;;;;;;;-0.71;84.70;100507.06;5038057;28;20083;-78
2021/12/11 11:07:01;;;;;;;62.03;29.30;;;;;;;-0.77;84.59;100507.69;5025063;28;20080;-78
2021/12/11 11:09:27;;;;;;;53.67;27.93;;;;;;;-0.73;84.95;100519.09;5023903;28;20456;-78
2021/12/11 11:11:56;;;;;;;81.33;34.57;;;;;;;-0.70;85.59;100516.63;5025457;28;20091;-78
2021/12/11 11:14:22;;;;;;;65.63;28.43;;;;;;;-0.79;85.10;100513.66;5023262;28;20077;-78
2021/12/11 11:16:54;;;;;;;57.20;29.80;;;;;;;-0.71;85.26;100522.59;5025444;28;20034;-78
2021/12/11 11:19:22;;;;;;;57.00;28.55;;;;;;;-0.65;84.52;100528.03;5023727;28;20041;-78
2021/12/11 11:21:53;;;;;;;52.87;29.37;;;;;;;-0.56;84.45;100530.09;5025051;28;20107;-78
2021/12/11 11:24:18;;;;;;;50.33;27.47;;;;;;;-0.68;85.00;100531.41;5023840;28;20048;-78
2021/12/11 11:26:45;;;;;;;52.23;29.33;;;;;;;-0.63;84.37;100546.22;5024798;28;20128;-78
2021/12/11 11:29:16;;;;;;;53.67;27.87;;;;;;;-0.64;84.72;100542.75;5023261;28;20041;-78
2021/12/11 11:31:44;;;;;;;52.43;28.73;;;;;;;-0.68;84.80;100556.44;5023432;28;20112;-78
2021/12/11 11:34:13;;;;;;;49.53;26.83;;;;;;;-0.66;84.80;100549.59;5023596;28;20050;-78
2021/12/11 11:36:39;;;;;;;46.53;26.17;;;;;;;-0.71;85.27;100566.66;5024171;28;20040;-78